sensor_id;sensor_type;location;lat;lon;timestamp;P1;durP1;ratioP1;P2;durP2;ratioP2
434;SDS011;204;48.942;9.256;2022-12-07T00:01:31;9.30;;;8.80;;
434;SDS011;204;48.942;9.256;2022-12-07T00:03:59;9.55;;;9.05;;
434;SDS011;204;48.942;9.256;2022-12-07T00:06:39;9.20;;;8.10;;
434;SDS011;204;48.942;9.256;2022-12-07T00:09:09;10.32;;;9.75;;
434;SDS011;204;48.942;9.256;2022-12-07T00:11:36;7.63;;;7.22;;
434;SDS011;204;48.942;9.256;2022-12-07T00:14:02;9.60;;;8.70;;
434;SDS011;204;48.942;9.256;2022-12-07T00:16:31;9.50;;;8.65;;
434;SDS011;204;48.942;9.256;2022-12-07T00:18:58;7.43;;;7.03;;
434;SDS011;204;48.942;9.256;2022-12-07T00:21:25;8.52;;;7.40;;
434;SDS011;204;48.942;9.256;2022-12-07T00:23:56;7.90;;;7.45;;
434;SDS011;204;48.942;9.256;2022-12-07T00:26:26;8.70;;;7.55;;
434;SDS011;204;48.942;9.256;2022-12-07T00:28:57;8.38;;;7.80;;
434;SDS011;204;48.942;9.256;2022-12-07T00:31:25;7.45;;;7.05;;
434;SDS011;204;48.942;9.256;2022-12-07T00:33:51;9.05;;;8.00;;
434;SDS011;204;48.942;9.256;2022-12-07T00:36:18;7.83;;;7.43;;
434;SDS011;204;48.942;9.256;2022-12-07T00:38:45;9.50;;;7.95;;
434;SDS011;204;48.942;9.256;2022-12-07T00:41:12;10.47;;;8.87;;
434;SDS011;204;48.942;9.256;2022-12-07T00:43:43;10.98;;;9.00;;
434;SDS011;204;48.942;9.256;2022-12-07T00:46:09;9.98;;;8.43;;
434;SDS011;204;48.942;9.256;2022-12-07T00:48:36;8.20;;;7.53;;
434;SDS011;204;48.942;9.256;2022-12-07T00:51:02;9.73;;;8.97;;
434;SDS011;204;48.942;9.256;2022-12-07T00:53:28;10.68;;;8.30;;
434;SDS011;204;48.942;9.256;2022-12-07T00:55:53;13.30;;;8.37;;
434;SDS011;204;48.942;9.256;2022-12-07T00:58:21;10.38;;;8.98;;
434;SDS011;204;48.942;9.256;2022-12-07T01:00:46;7.90;;;7.50;;
434;SDS011;204;48.942;9.256;2022-12-07T01:03:12;8.87;;;7.83;;
434;SDS011;204;48.942;9.256;2022-12-07T01:05:39;10.63;;;9.07;;
434;SDS011;204;48.942;9.256;2022-12-07T01:08:05;12.57;;;9.32;;
434;SDS011;204;48.942;9.256;2022-12-07T01:10:31;7.85;;;7.45;;
434;SDS011;204;48.942;9.256;2022-12-07T01:12:57;9.80;;;8.93;;
434;SDS011;204;48.942;9.256;2022-12-07T01:15:23;8.25;;;7.85;;
434;SDS011;204;48.942;9.256;2022-12-07T01:17:50;8.15;;;7.60;;
434;SDS011;204;48.942;9.256;2022-12-07T01:20:16;9.70;;;8.60;;
434;SDS011;204;48.942;9.256;2022-12-07T01:22:42;9.53;;;8.47;;
434;SDS011;204;48.942;9.256;2022-12-07T01:25:08;8.65;;;8.07;;
434;SDS011;204;48.942;9.256;2022-12-07T01:27:36;9.02;;;8.52;;
434;SDS011;204;48.942;9.256;2022-12-07T01:30:03;11.60;;;9.20;;
434;SDS011;204;48.942;9.256;2022-12-07T01:32:30;9.90;;;8.10;;
434;SDS011;204;48.942;9.256;2022-12-07T01:34:55;8.80;;;8.27;;
434;SDS011;204;48.942;9.256;2022-12-07T01:37:21;8.37;;;7.53;;
434;SDS011;204;48.942;9.256;2022-12-07T01:39:53;8.37;;;7.33;;
434;SDS011;204;48.942;9.256;2022-12-07T01:42:18;11.15;;;7.82;;
434;SDS011;204;48.942;9.256;2022-12-07T01:47:51;10.48;;;8.65;;
434;SDS011;204;48.942;9.256;2022-12-07T01:50:20;9.30;;;8.80;;
434;SDS011;204;48.942;9.256;2022-12-07T01:52:49;10.77;;;8.25;;
434;SDS011;204;48.942;9.256;2022-12-07T01:55:18;11.25;;;8.73;;
434;SDS011;204;48.942;9.256;2022-12-07T01:57:45;9.00;;;8.50;;
434;SDS011;204;48.942;9.256;2022-12-07T02:00:14;9.90;;;9.35;;
434;SDS011;204;48.942;9.256;2022-12-07T02:02:43;10.90;;;8.65;;
434;SDS011;204;48.942;9.256;2022-12-07T02:05:22;9.15;;;8.65;;
434;SDS011;204;48.942;9.256;2022-12-07T02:07:49;12.50;;;10.10;;
434;SDS011;204;48.942;9.256;2022-12-07T02:10:19;11.73;;;11.13;;
434;SDS011;204;48.942;9.256;2022-12-07T02:12:46;12.32;;;10.20;;
434;SDS011;204;48.942;9.256;2022-12-07T02:15:14;11.25;;;10.65;;
434;SDS011;204;48.942;9.256;2022-12-07T02:31:38;11.13;;;10.15;;
434;SDS011;204;48.942;9.256;2022-12-07T02:34:28;10.85;;;10.30;;
434;SDS011;204;48.942;9.256;2022-12-07T02:40:01;10.82;;;10.25;;
434;SDS011;204;48.942;9.256;2022-12-07T02:42:36;11.98;;;9.43;;
434;SDS011;204;48.942;9.256;2022-12-07T02:45:07;12.02;;;10.45;;
434;SDS011;204;48.942;9.256;2022-12-07T02:47:35;10.52;;;9.90;;
434;SDS011;204;48.942;9.256;2022-12-07T02:50:03;11.20;;;9.85;;
434;SDS011;204;48.942;9.256;2022-12-07T02:52:30;10.55;;;9.68;;
434;SDS011;204;48.942;9.256;2022-12-07T02:54:55;11.43;;;9.77;;
434;SDS011;204;48.942;9.256;2022-12-07T02:57:27;13.70;;;10.70;;
434;SDS011;204;48.942;9.256;2022-12-07T03:00:16;11.27;;;9.93;;
434;SDS011;204;48.942;9.256;2022-12-07T03:10:58;12.60;;;10.50;;
434;SDS011;204;48.942;9.256;2022-12-07T03:13:28;10.77;;;9.55;;
434;SDS011;204;48.942;9.256;2022-12-07T03:19:00;13.05;;;10.70;;
434;SDS011;204;48.942;9.256;2022-12-07T03:21:31;12.57;;;10.50;;
434;SDS011;204;48.942;9.256;2022-12-07T03:24:10;11.70;;;10.93;;
434;SDS011;204;48.942;9.256;2022-12-07T03:26:53;13.57;;;10.77;;
434;SDS011;204;48.942;9.256;2022-12-07T03:29:28;12.35;;;10.55;;
434;SDS011;204;48.942;9.256;2022-12-07T03:32:02;14.30;;;12.00;;
434;SDS011;204;48.942;9.256;2022-12-07T03:34:39;13.20;;;10.63;;
434;SDS011;204;48.942;9.256;2022-12-07T03:37:16;14.32;;;10.45;;
434;SDS011;204;48.942;9.256;2022-12-07T03:39:56;12.90;;;10.68;;
434;SDS011;204;48.942;9.256;2022-12-07T03:42:27;13.68;;;11.00;;
434;SDS011;204;48.942;9.256;2022-12-07T03:44:53;13.52;;;10.88;;
434;SDS011;204;48.942;9.256;2022-12-07T03:50:07;13.25;;;12.20;;
434;SDS011;204;48.942;9.256;2022-12-07T03:52:44;13.80;;;10.32;;
434;SDS011;204;48.942;9.256;2022-12-07T03:57:49;14.68;;;13.30;;
434;SDS011;204;48.942;9.256;2022-12-07T04:00:18;14.88;;;11.80;;
434;SDS011;204;48.942;9.256;2022-12-07T04:02:44;13.67;;;11.30;;
434;SDS011;204;48.942;9.256;2022-12-07T04:05:10;13.93;;;11.37;;
434;SDS011;204;48.942;9.256;2022-12-07T04:07:36;15.93;;;11.52;;
434;SDS011;204;48.942;9.256;2022-12-07T04:10:02;14.30;;;11.43;;
434;SDS011;204;48.942;9.256;2022-12-07T04:12:29;12.35;;;11.40;;
434;SDS011;204;48.942;9.256;2022-12-07T04:14:54;15.63;;;12.70;;
434;SDS011;204;48.942;9.256;2022-12-07T04:17:20;11.77;;;11.10;;
434;SDS011;204;48.942;9.256;2022-12-07T04:19:45;11.73;;;11.17;;
434;SDS011;204;48.942;9.256;2022-12-07T04:22:11;13.40;;;11.80;;
434;SDS011;204;48.942;9.256;2022-12-07T04:24:36;15.97;;;11.50;;
434;SDS011;204;48.942;9.256;2022-12-07T04:27:02;14.23;;;11.20;;
434;SDS011;204;48.942;9.256;2022-12-07T04:29:28;13.93;;;11.53;;
434;SDS011;204;48.942;9.256;2022-12-07T04:31:53;14.07;;;11.70;;
434;SDS011;204;48.942;9.256;2022-12-07T04:34:19;13.47;;;11.80;;
434;SDS011;204;48.942;9.256;2022-12-07T04:36:46;13.60;;;12.03;;
434;SDS011;204;48.942;9.256;2022-12-07T04:39:22;14.43;;;11.77;;
434;SDS011;204;48.942;9.256;2022-12-07T04:41:57;12.00;;;11.13;;
434;SDS011;204;48.942;9.256;2022-12-07T04:44:23;15.07;;;12.50;;
434;SDS011;204;48.942;9.256;2022-12-07T04:46:50;14.45;;;11.38;;
434;SDS011;204;48.942;9.256;2022-12-07T04:49:17;12.43;;;11.43;;
434;SDS011;204;48.942;9.256;2022-12-07T04:51:43;12.13;;;11.45;;
434;SDS011;204;48.942;9.256;2022-12-07T04:54:09;14.50;;;11.47;;
434;SDS011;204;48.942;9.256;2022-12-07T04:56:35;15.50;;;12.20;;
434;SDS011;204;48.942;9.256;2022-12-07T04:59:01;15.93;;;12.17;;
434;SDS011;204;48.942;9.256;2022-12-07T05:01:27;12.18;;;11.20;;
434;SDS011;204;48.942;9.256;2022-12-07T05:03:53;15.63;;;11.60;;
434;SDS011;204;48.942;9.256;2022-12-07T05:06:19;14.07;;;12.20;;
434;SDS011;204;48.942;9.256;2022-12-07T05:08:44;14.00;;;12.27;;
434;SDS011;204;48.942;9.256;2022-12-07T05:11:10;14.50;;;11.90;;
434;SDS011;204;48.942;9.256;2022-12-07T05:14:00;14.68;;;11.65;;
434;SDS011;204;48.942;9.256;2022-12-07T05:16:27;13.13;;;11.38;;
434;SDS011;204;48.942;9.256;2022-12-07T05:18:53;14.23;;;13.50;;
434;SDS011;204;48.942;9.256;2022-12-07T05:21:19;17.80;;;13.07;;
434;SDS011;204;48.942;9.256;2022-12-07T05:23:44;14.83;;;12.03;;
434;SDS011;204;48.942;9.256;2022-12-07T05:26:10;13.00;;;10.60;;
434;SDS011;204;48.942;9.256;2022-12-07T05:28:35;14.57;;;11.57;;
434;SDS011;204;48.942;9.256;2022-12-07T05:31:01;12.43;;;10.90;;
434;SDS011;204;48.942;9.256;2022-12-07T05:33:27;13.97;;;11.20;;
434;SDS011;204;48.942;9.256;2022-12-07T05:35:52;13.53;;;11.70;;
434;SDS011;204;48.942;9.256;2022-12-07T05:38:18;16.10;;;11.87;;
434;SDS011;204;48.942;9.256;2022-12-07T05:40:43;12.83;;;11.50;;
434;SDS011;204;48.942;9.256;2022-12-07T05:43:09;15.07;;;12.20;;
434;SDS011;204;48.942;9.256;2022-12-07T05:45:35;13.73;;;10.82;;
434;SDS011;204;48.942;9.256;2022-12-07T05:48:00;14.43;;;13.10;;
434;SDS011;204;48.942;9.256;2022-12-07T05:50:26;14.93;;;11.93;;
434;SDS011;204;48.942;9.256;2022-12-07T05:52:52;13.95;;;11.55;;
434;SDS011;204;48.942;9.256;2022-12-07T05:55:18;14.93;;;11.90;;
434;SDS011;204;48.942;9.256;2022-12-07T05:57:44;13.40;;;11.67;;
434;SDS011;204;48.942;9.256;2022-12-07T06:00:29;14.43;;;11.30;;
434;SDS011;204;48.942;9.256;2022-12-07T06:02:55;13.33;;;12.63;;
434;SDS011;204;48.942;9.256;2022-12-07T06:05:20;13.80;;;11.93;;
434;SDS011;204;48.942;9.256;2022-12-07T06:07:46;13.83;;;12.50;;
434;SDS011;204;48.942;9.256;2022-12-07T06:10:11;13.47;;;12.77;;
434;SDS011;204;48.942;9.256;2022-12-07T06:12:37;15.40;;;12.50;;
434;SDS011;204;48.942;9.256;2022-12-07T06:15:04;21.08;;;12.68;;
434;SDS011;204;48.942;9.256;2022-12-07T06:17:31;15.45;;;13.10;;
434;SDS011;204;48.942;9.256;2022-12-07T06:19:57;18.90;;;13.02;;
434;SDS011;204;48.942;9.256;2022-12-07T06:22:22;16.97;;;12.33;;
434;SDS011;204;48.942;9.256;2022-12-07T06:24:48;20.23;;;13.17;;
434;SDS011;204;48.942;9.256;2022-12-07T06:27:14;20.60;;;12.80;;
434;SDS011;204;48.942;9.256;2022-12-07T06:29:39;18.43;;;12.90;;
434;SDS011;204;48.942;9.256;2022-12-07T06:32:05;19.97;;;13.03;;
434;SDS011;204;48.942;9.256;2022-12-07T06:34:31;16.37;;;13.10;;
434;SDS011;204;48.942;9.256;2022-12-07T06:36:56;17.90;;;13.30;;
434;SDS011;204;48.942;9.256;2022-12-07T06:39:23;16.57;;;14.20;;
434;SDS011;204;48.942;9.256;2022-12-07T06:41:51;16.92;;;12.48;;
434;SDS011;204;48.942;9.256;2022-12-07T06:44:17;16.80;;;14.02;;
434;SDS011;204;48.942;9.256;2022-12-07T06:46:43;14.23;;;12.00;;
434;SDS011;204;48.942;9.256;2022-12-07T06:49:09;15.43;;;11.70;;
434;SDS011;204;48.942;9.256;2022-12-07T06:51:34;18.57;;;14.70;;
434;SDS011;204;48.942;9.256;2022-12-07T06:54:01;14.32;;;11.85;;
434;SDS011;204;48.942;9.256;2022-12-07T06:56:28;13.88;;;12.38;;
434;SDS011;204;48.942;9.256;2022-12-07T06:58:54;16.27;;;13.00;;
434;SDS011;204;48.942;9.256;2022-12-07T07:01:20;14.60;;;11.63;;
434;SDS011;204;48.942;9.256;2022-12-07T07:03:45;13.53;;;11.73;;
434;SDS011;204;48.942;9.256;2022-12-07T07:06:11;14.15;;;11.50;;
434;SDS011;204;48.942;9.256;2022-12-07T07:08:38;19.92;;;11.93;;
434;SDS011;204;48.942;9.256;2022-12-07T07:11:04;15.85;;;12.65;;
434;SDS011;204;48.942;9.256;2022-12-07T07:13:30;20.38;;;14.80;;
434;SDS011;204;48.942;9.256;2022-12-07T07:15:56;18.90;;;13.33;;
434;SDS011;204;48.942;9.256;2022-12-07T07:18:22;19.73;;;15.00;;
434;SDS011;204;48.942;9.256;2022-12-07T07:20:50;23.75;;;15.50;;
434;SDS011;204;48.942;9.256;2022-12-07T07:23:16;14.82;;;12.63;;
434;SDS011;204;48.942;9.256;2022-12-07T07:25:41;17.97;;;12.83;;
434;SDS011;204;48.942;9.256;2022-12-07T07:28:07;16.00;;;11.30;;
434;SDS011;204;48.942;9.256;2022-12-07T07:30:32;18.53;;;13.00;;
434;SDS011;204;48.942;9.256;2022-12-07T07:32:59;19.30;;;11.50;;
434;SDS011;204;48.942;9.256;2022-12-07T07:35:25;18.88;;;12.52;;
434;SDS011;204;48.942;9.256;2022-12-07T07:37:52;17.30;;;12.52;;
434;SDS011;204;48.942;9.256;2022-12-07T07:40:18;16.10;;;12.83;;
434;SDS011;204;48.942;9.256;2022-12-07T07:42:43;15.40;;;12.70;;
434;SDS011;204;48.942;9.256;2022-12-07T07:45:11;15.80;;;12.05;;
434;SDS011;204;48.942;9.256;2022-12-07T07:47:37;15.30;;;12.67;;
434;SDS011;204;48.942;9.256;2022-12-07T07:50:02;11.87;;;10.73;;
434;SDS011;204;48.942;9.256;2022-12-07T07:52:28;19.57;;;11.70;;
434;SDS011;204;48.942;9.256;2022-12-07T07:54:53;14.00;;;11.47;;
434;SDS011;204;48.942;9.256;2022-12-07T07:57:19;15.27;;;12.80;;
434;SDS011;204;48.942;9.256;2022-12-07T07:59:44;17.00;;;12.30;;
434;SDS011;204;48.942;9.256;2022-12-07T08:02:14;13.90;;;10.73;;
434;SDS011;204;48.942;9.256;2022-12-07T08:04:41;16.77;;;11.68;;
434;SDS011;204;48.942;9.256;2022-12-07T08:07:07;15.77;;;10.63;;
434;SDS011;204;48.942;9.256;2022-12-07T08:09:33;13.95;;;11.07;;
434;SDS011;204;48.942;9.256;2022-12-07T08:11:59;17.67;;;11.40;;
434;SDS011;204;48.942;9.256;2022-12-07T08:14:25;13.73;;;10.93;;
434;SDS011;204;48.942;9.256;2022-12-07T08:16:52;11.30;;;10.18;;
434;SDS011;204;48.942;9.256;2022-12-07T08:19:18;12.90;;;9.70;;
434;SDS011;204;48.942;9.256;2022-12-07T08:21:43;12.20;;;10.53;;
434;SDS011;204;48.942;9.256;2022-12-07T08:24:09;12.90;;;10.33;;
434;SDS011;204;48.942;9.256;2022-12-07T08:26:34;13.67;;;10.33;;
434;SDS011;204;48.942;9.256;2022-12-07T08:29:00;11.03;;;8.80;;
434;SDS011;204;48.942;9.256;2022-12-07T08:31:26;11.37;;;9.57;;
434;SDS011;204;48.942;9.256;2022-12-07T08:33:52;15.43;;;10.85;;
434;SDS011;204;48.942;9.256;2022-12-07T08:36:18;16.75;;;11.65;;
434;SDS011;204;48.942;9.256;2022-12-07T08:38:44;20.00;;;12.10;;
434;SDS011;204;48.942;9.256;2022-12-07T08:41:10;12.70;;;10.15;;
434;SDS011;204;48.942;9.256;2022-12-07T08:43:36;12.50;;;8.50;;
434;SDS011;204;48.942;9.256;2022-12-07T08:49:22;11.18;;;9.25;;
434;SDS011;204;48.942;9.256;2022-12-07T08:51:40;9.60;;;8.90;;
434;SDS011;204;48.942;9.256;2022-12-07T08:54:09;15.98;;;9.60;;
434;SDS011;204;48.942;9.256;2022-12-07T08:56:37;8.85;;;7.93;;
434;SDS011;204;48.942;9.256;2022-12-07T08:59:04;10.98;;;10.40;;
434;SDS011;204;48.942;9.256;2022-12-07T09:01:30;12.85;;;9.68;;
434;SDS011;204;48.942;9.256;2022-12-07T09:03:55;8.20;;;7.20;;
434;SDS011;204;48.942;9.256;2022-12-07T09:06:21;9.83;;;8.40;;
434;SDS011;204;48.942;9.256;2022-12-07T09:08:47;9.20;;;7.87;;
434;SDS011;204;48.942;9.256;2022-12-07T09:11:16;11.85;;;9.05;;
434;SDS011;204;48.942;9.256;2022-12-07T09:13:41;10.67;;;8.67;;
434;SDS011;204;48.942;9.256;2022-12-07T09:16:07;12.13;;;8.43;;
434;SDS011;204;48.942;9.256;2022-12-07T09:18:32;11.27;;;8.90;;
434;SDS011;204;48.942;9.256;2022-12-07T09:20:58;9.63;;;8.83;;
434;SDS011;204;48.942;9.256;2022-12-07T09:23:24;9.70;;;8.87;;
434;SDS011;204;48.942;9.256;2022-12-07T09:25:50;11.60;;;10.10;;
434;SDS011;204;48.942;9.256;2022-12-07T09:28:15;10.03;;;9.00;;
434;SDS011;204;48.942;9.256;2022-12-07T09:30:47;10.37;;;8.43;;
434;SDS011;204;48.942;9.256;2022-12-07T09:33:13;10.57;;;7.65;;
434;SDS011;204;48.942;9.256;2022-12-07T09:35:46;7.80;;;6.93;;
434;SDS011;204;48.942;9.256;2022-12-07T09:38:12;8.15;;;7.18;;
434;SDS011;204;48.942;9.256;2022-12-07T09:40:38;9.27;;;5.73;;
434;SDS011;204;48.942;9.256;2022-12-07T09:43:04;7.15;;;5.78;;
434;SDS011;204;48.942;9.256;2022-12-07T09:45:34;8.27;;;5.70;;
434;SDS011;204;48.942;9.256;2022-12-07T09:48:04;8.15;;;5.95;;
434;SDS011;204;48.942;9.256;2022-12-07T09:50:33;8.13;;;6.30;;
434;SDS011;204;48.942;9.256;2022-12-07T09:53:10;8.23;;;6.50;;
434;SDS011;204;48.942;9.256;2022-12-07T09:55:41;8.52;;;6.63;;
434;SDS011;204;48.942;9.256;2022-12-07T09:58:12;8.02;;;6.13;;
434;SDS011;204;48.942;9.256;2022-12-07T10:00:45;8.50;;;5.85;;
434;SDS011;204;48.942;9.256;2022-12-07T10:03:11;6.50;;;5.63;;
434;SDS011;204;48.942;9.256;2022-12-07T10:05:47;7.45;;;6.13;;
434;SDS011;204;48.942;9.256;2022-12-07T10:08:17;7.05;;;5.97;;
434;SDS011;204;48.942;9.256;2022-12-07T10:10:43;8.32;;;6.18;;
434;SDS011;204;48.942;9.256;2022-12-07T10:13:11;7.22;;;6.28;;
434;SDS011;204;48.942;9.256;2022-12-07T10:15:49;6.85;;;6.15;;
434;SDS011;204;48.942;9.256;2022-12-07T10:21:02;8.38;;;6.45;;
434;SDS011;204;48.942;9.256;2022-12-07T10:28:54;8.77;;;6.10;;
434;SDS011;204;48.942;9.256;2022-12-07T10:31:21;7.82;;;5.05;;
434;SDS011;204;48.942;9.256;2022-12-07T10:38:50;8.25;;;5.45;;
434;SDS011;204;48.942;9.256;2022-12-07T10:41:17;7.30;;;4.75;;
434;SDS011;204;48.942;9.256;2022-12-07T10:43:54;5.60;;;4.40;;
434;SDS011;204;48.942;9.256;2022-12-07T10:52:05;8.07;;;5.10;;
434;SDS011;204;48.942;9.256;2022-12-07T11:02:59;8.00;;;6.47;;
434;SDS011;204;48.942;9.256;2022-12-07T11:05:49;7.93;;;6.57;;
434;SDS011;204;48.942;9.256;2022-12-07T11:16:59;7.93;;;6.55;;
434;SDS011;204;48.942;9.256;2022-12-07T11:22:23;7.55;;;6.70;;
434;SDS011;204;48.942;9.256;2022-12-07T11:30:41;8.93;;;7.55;;
434;SDS011;204;48.942;9.256;2022-12-07T11:35:57;8.48;;;8.02;;
434;SDS011;204;48.942;9.256;2022-12-07T11:38:52;10.23;;;8.10;;
434;SDS011;204;48.942;9.256;2022-12-07T11:41:22;8.35;;;7.25;;
434;SDS011;204;48.942;9.256;2022-12-07T11:43:54;8.20;;;7.82;;
434;SDS011;204;48.942;9.256;2022-12-07T11:46:44;10.57;;;8.32;;
434;SDS011;204;48.942;9.256;2022-12-07T11:49:19;8.85;;;7.25;;
434;SDS011;204;48.942;9.256;2022-12-07T11:51:59;8.48;;;7.43;;
434;SDS011;204;48.942;9.256;2022-12-07T11:54:30;8.07;;;7.45;;
434;SDS011;204;48.942;9.256;2022-12-07T11:57:01;8.52;;;7.93;;
434;SDS011;204;48.942;9.256;2022-12-07T11:59:35;9.95;;;9.02;;
434;SDS011;204;48.942;9.256;2022-12-07T12:07:14;11.40;;;8.95;;
434;SDS011;204;48.942;9.256;2022-12-07T12:09:49;9.25;;;8.40;;
434;SDS011;204;48.942;9.256;2022-12-07T12:20:55;11.50;;;10.18;;
434;SDS011;204;48.942;9.256;2022-12-07T12:23:44;12.35;;;11.75;;
434;SDS011;204;48.942;9.256;2022-12-07T12:26:24;14.30;;;13.15;;
434;SDS011;204;48.942;9.256;2022-12-07T12:33:50;11.03;;;10.20;;
434;SDS011;204;48.942;9.256;2022-12-07T12:46:59;9.52;;;8.85;;
434;SDS011;204;48.942;9.256;2022-12-07T12:49:42;12.27;;;11.18;;
434;SDS011;204;48.942;9.256;2022-12-07T12:54:35;10.90;;;8.93;;
434;SDS011;204;48.942;9.256;2022-12-07T12:59:31;15.55;;;13.82;;
434;SDS011;204;48.942;9.256;2022-12-07T13:11:15;11.48;;;10.10;;
434;SDS011;204;48.942;9.256;2022-12-07T13:13:40;13.52;;;11.52;;
434;SDS011;204;48.942;9.256;2022-12-07T13:18:37;11.68;;;10.13;;
434;SDS011;204;48.942;9.256;2022-12-07T13:29:05;12.10;;;11.02;;
434;SDS011;204;48.942;9.256;2022-12-07T13:34:33;11.82;;;10.25;;
434;SDS011;204;48.942;9.256;2022-12-07T13:37:00;13.82;;;11.52;;
434;SDS011;204;48.942;9.256;2022-12-07T13:39:29;12.63;;;10.20;;
434;SDS011;204;48.942;9.256;2022-12-07T13:41:58;15.40;;;11.45;;
434;SDS011;204;48.942;9.256;2022-12-07T13:44:27;11.85;;;10.57;;
434;SDS011;204;48.942;9.256;2022-12-07T13:46:57;11.40;;;10.43;;
434;SDS011;204;48.942;9.256;2022-12-07T13:49:31;13.90;;;10.15;;
434;SDS011;204;48.942;9.256;2022-12-07T13:52:16;11.98;;;9.70;;
434;SDS011;204;48.942;9.256;2022-12-07T13:55:13;11.90;;;10.52;;
434;SDS011;204;48.942;9.256;2022-12-07T13:57:42;12.13;;;11.07;;
434;SDS011;204;48.942;9.256;2022-12-07T14:00:15;16.35;;;15.55;;
434;SDS011;204;48.942;9.256;2022-12-07T14:02:54;15.75;;;13.93;;
434;SDS011;204;48.942;9.256;2022-12-07T14:05:29;19.33;;;14.75;;
434;SDS011;204;48.942;9.256;2022-12-07T14:10:27;14.15;;;11.85;;
434;SDS011;204;48.942;9.256;2022-12-07T14:12:54;16.58;;;14.30;;
434;SDS011;204;48.942;9.256;2022-12-07T14:15:21;19.23;;;15.45;;
434;SDS011;204;48.942;9.256;2022-12-07T14:17:58;13.50;;;11.85;;
434;SDS011;204;48.942;9.256;2022-12-07T14:20:38;17.05;;;12.73;;
434;SDS011;204;48.942;9.256;2022-12-07T14:23:19;14.68;;;12.48;;
434;SDS011;204;48.942;9.256;2022-12-07T14:25:50;18.98;;;16.10;;
434;SDS011;204;48.942;9.256;2022-12-07T14:28:51;16.13;;;12.90;;
434;SDS011;204;48.942;9.256;2022-12-07T14:31:11;12.18;;;11.02;;
434;SDS011;204;48.942;9.256;2022-12-07T14:33:38;15.15;;;12.40;;
434;SDS011;204;48.942;9.256;2022-12-07T14:36:05;16.27;;;12.55;;
434;SDS011;204;48.942;9.256;2022-12-07T14:38:30;14.67;;;13.40;;
434;SDS011;204;48.942;9.256;2022-12-07T14:40:56;21.10;;;20.00;;
434;SDS011;204;48.942;9.256;2022-12-07T14:43:42;15.35;;;12.10;;
434;SDS011;204;48.942;9.256;2022-12-07T14:46:08;19.60;;;16.13;;
434;SDS011;204;48.942;9.256;2022-12-07T14:48:34;14.95;;;11.70;;
434;SDS011;204;48.942;9.256;2022-12-07T14:51:00;17.10;;;13.63;;
434;SDS011;204;48.942;9.256;2022-12-07T14:53:29;13.53;;;11.87;;
434;SDS011;204;48.942;9.256;2022-12-07T14:55:58;14.77;;;12.75;;
434;SDS011;204;48.942;9.256;2022-12-07T14:58:24;14.50;;;11.10;;
434;SDS011;204;48.942;9.256;2022-12-07T15:00:49;31.37;;;29.83;;
434;SDS011;204;48.942;9.256;2022-12-07T15:03:15;16.53;;;13.27;;
434;SDS011;204;48.942;9.256;2022-12-07T15:05:41;19.10;;;14.07;;
434;SDS011;204;48.942;9.256;2022-12-07T15:08:08;24.00;;;16.23;;
434;SDS011;204;48.942;9.256;2022-12-07T15:10:35;20.23;;;15.43;;
434;SDS011;204;48.942;9.256;2022-12-07T15:13:03;16.40;;;13.73;;
434;SDS011;204;48.942;9.256;2022-12-07T15:15:48;23.10;;;18.25;;
434;SDS011;204;48.942;9.256;2022-12-07T15:18:15;23.45;;;19.85;;
434;SDS011;204;48.942;9.256;2022-12-07T15:20:41;18.45;;;16.15;;
434;SDS011;204;48.942;9.256;2022-12-07T15:23:07;25.13;;;22.77;;
434;SDS011;204;48.942;9.256;2022-12-07T15:25:33;23.13;;;21.60;;
434;SDS011;204;48.942;9.256;2022-12-07T15:27:58;63.17;;;40.00;;
434;SDS011;204;48.942;9.256;2022-12-07T15:30:24;37.60;;;25.33;;
434;SDS011;204;48.942;9.256;2022-12-07T15:32:50;23.00;;;18.83;;
434;SDS011;204;48.942;9.256;2022-12-07T15:35:16;22.23;;;17.50;;
434;SDS011;204;48.942;9.256;2022-12-07T15:37:42;25.67;;;23.63;;
434;SDS011;204;48.942;9.256;2022-12-07T15:40:07;26.77;;;20.30;;
434;SDS011;204;48.942;9.256;2022-12-07T15:42:35;20.63;;;16.85;;
434;SDS011;204;48.942;9.256;2022-12-07T15:45:01;20.95;;;16.48;;
434;SDS011;204;48.942;9.256;2022-12-07T15:47:31;20.55;;;15.65;;
434;SDS011;204;48.942;9.256;2022-12-07T15:50:05;24.08;;;16.98;;
434;SDS011;204;48.942;9.256;2022-12-07T15:52:32;22.88;;;17.83;;
434;SDS011;204;48.942;9.256;2022-12-07T15:54:58;23.10;;;18.42;;
434;SDS011;204;48.942;9.256;2022-12-07T15:57:28;24.88;;;21.52;;
434;SDS011;204;48.942;9.256;2022-12-07T15:59:54;25.05;;;18.80;;
434;SDS011;204;48.942;9.256;2022-12-07T16:02:20;24.63;;;20.03;;
434;SDS011;204;48.942;9.256;2022-12-07T16:04:45;26.10;;;18.77;;
434;SDS011;204;48.942;9.256;2022-12-07T16:07:11;25.53;;;21.30;;
434;SDS011;204;48.942;9.256;2022-12-07T16:09:39;29.52;;;22.92;;
434;SDS011;204;48.942;9.256;2022-12-07T16:12:05;25.83;;;18.87;;
434;SDS011;204;48.942;9.256;2022-12-07T16:14:30;34.60;;;23.70;;
434;SDS011;204;48.942;9.256;2022-12-07T16:16:58;23.20;;;18.90;;
434;SDS011;204;48.942;9.256;2022-12-07T16:19:24;67.30;;;53.27;;
434;SDS011;204;48.942;9.256;2022-12-07T16:21:49;99.97;;;73.50;;
434;SDS011;204;48.942;9.256;2022-12-07T16:24:15;45.60;;;41.90;;
434;SDS011;204;48.942;9.256;2022-12-07T16:26:41;30.27;;;26.70;;
434;SDS011;204;48.942;9.256;2022-12-07T16:29:09;28.27;;;23.50;;
434;SDS011;204;48.942;9.256;2022-12-07T16:31:36;24.13;;;20.38;;
434;SDS011;204;48.942;9.256;2022-12-07T16:34:02;36.17;;;34.40;;
434;SDS011;204;48.942;9.256;2022-12-07T16:36:28;24.90;;;18.37;;
434;SDS011;204;48.942;9.256;2022-12-07T16:38:53;26.07;;;21.77;;
434;SDS011;204;48.942;9.256;2022-12-07T16:41:19;21.73;;;19.27;;
434;SDS011;204;48.942;9.256;2022-12-07T16:43:44;22.67;;;17.80;;
434;SDS011;204;48.942;9.256;2022-12-07T16:46:10;26.90;;;22.50;;
434;SDS011;204;48.942;9.256;2022-12-07T16:48:36;23.87;;;20.57;;
434;SDS011;204;48.942;9.256;2022-12-07T16:51:04;19.30;;;16.17;;
434;SDS011;204;48.942;9.256;2022-12-07T16:53:31;21.23;;;16.52;;
434;SDS011;204;48.942;9.256;2022-12-07T16:55:56;22.87;;;17.87;;
434;SDS011;204;48.942;9.256;2022-12-07T16:58:22;24.50;;;18.17;;
434;SDS011;204;48.942;9.256;2022-12-07T17:00:48;28.10;;;18.60;;
434;SDS011;204;48.942;9.256;2022-12-07T17:03:13;40.15;;;33.42;;
434;SDS011;204;48.942;9.256;2022-12-07T17:05:40;33.30;;;24.30;;
434;SDS011;204;48.942;9.256;2022-12-07T17:08:07;24.85;;;22.08;;
434;SDS011;204;48.942;9.256;2022-12-07T17:10:34;21.10;;;15.65;;
434;SDS011;204;48.942;9.256;2022-12-07T17:13:01;20.90;;;14.77;;
434;SDS011;204;48.942;9.256;2022-12-07T17:16:01;19.58;;;15.48;;
434;SDS011;204;48.942;9.256;2022-12-07T17:18:29;21.23;;;16.20;;
434;SDS011;204;48.942;9.256;2022-12-07T17:21:01;32.83;;;26.30;;
434;SDS011;204;48.942;9.256;2022-12-07T17:23:28;27.95;;;20.05;;
434;SDS011;204;48.942;9.256;2022-12-07T17:25:55;24.50;;;19.15;;
434;SDS011;204;48.942;9.256;2022-12-07T17:28:20;35.37;;;22.37;;
434;SDS011;204;48.942;9.256;2022-12-07T17:30:46;24.03;;;15.93;;
434;SDS011;204;48.942;9.256;2022-12-07T17:33:12;26.87;;;17.80;;
434;SDS011;204;48.942;9.256;2022-12-07T17:35:37;40.93;;;36.17;;
434;SDS011;204;48.942;9.256;2022-12-07T17:38:03;26.50;;;20.13;;
434;SDS011;204;48.942;9.256;2022-12-07T17:40:29;20.50;;;15.80;;
434;SDS011;204;48.942;9.256;2022-12-07T17:42:54;32.50;;;26.37;;
434;SDS011;204;48.942;9.256;2022-12-07T17:45:20;25.60;;;21.00;;
434;SDS011;204;48.942;9.256;2022-12-07T17:47:45;23.57;;;18.40;;
434;SDS011;204;48.942;9.256;2022-12-07T17:50:11;18.87;;;16.50;;
434;SDS011;204;48.942;9.256;2022-12-07T17:52:37;20.30;;;16.03;;
434;SDS011;204;48.942;9.256;2022-12-07T17:55:22;19.38;;;15.48;;
434;SDS011;204;48.942;9.256;2022-12-07T17:57:48;27.00;;;16.83;;